createdAt,value
2022-11-20T00:01:29.344Z,31.40
2022-11-20T00:03:58.680Z,35.75
2022-11-20T00:06:26.401Z,35.92
2022-11-20T00:08:56.073Z,34.03
2022-11-20T00:11:23.999Z,28.42
2022-11-20T00:13:52.790Z,30.95
2022-11-20T00:16:21.432Z,34.83
2022-11-20T00:18:48.923Z,31.20
2022-11-20T00:21:19.090Z,39.10
2022-11-20T00:23:46.523Z,35.40
2022-11-20T00:26:15.218Z,30.48
2022-11-20T00:28:43.160Z,35.70
2022-11-20T00:31:12.346Z,35.55
2022-11-20T00:33:39.781Z,33.28
2022-11-20T00:36:08.227Z,30.00
2022-11-20T00:38:35.926Z,29.20
2022-11-20T00:41:04.246Z,32.90
2022-11-20T00:43:31.666Z,28.85
2022-11-20T00:46:02.677Z,33.67
2022-11-20T00:48:30.090Z,31.98
2022-11-20T00:50:57.928Z,29.95
2022-11-20T00:53:25.436Z,30.50
2022-11-20T00:55:56.367Z,32.58
2022-11-20T00:58:24.178Z,27.70
2022-11-20T01:00:51.387Z,30.90
2022-11-20T01:03:24.140Z,26.83
2022-11-20T01:05:54.096Z,31.45
2022-11-20T01:08:21.339Z,31.98
2022-11-20T01:10:48.461Z,27.10
2022-11-20T01:13:34.336Z,28.80
2022-11-20T01:16:08.997Z,27.95
2022-11-20T01:18:36.835Z,30.08
2022-11-20T01:21:04.804Z,28.17
2022-11-20T01:23:33.210Z,29.90
2022-11-20T01:26:02.088Z,29.73
2022-11-20T01:28:30.062Z,29.83
2022-11-20T01:30:57.235Z,28.67
2022-11-20T01:33:24.672Z,28.88
2022-11-20T01:35:52.175Z,27.73
2022-11-20T01:38:21.026Z,25.60
2022-11-20T01:40:55.283Z,29.23
2022-11-20T01:43:22.503Z,26.58
2022-11-20T01:46:01.031Z,25.70
2022-11-20T01:48:54.215Z,28.75
2022-11-20T01:51:31.251Z,26.65
2022-11-20T01:54:02.157Z,29.42
2022-11-20T01:56:30.287Z,25.92
2022-11-20T01:58:59.970Z,28.58
2022-11-20T02:01:28.330Z,27.70
2022-11-20T02:03:56.096Z,26.02
2022-11-20T02:06:32.549Z,27.60
2022-11-20T02:08:59.764Z,29.33
2022-11-20T02:11:26.910Z,29.40
2022-11-20T02:13:55.292Z,28.25
2022-11-20T02:16:27.656Z,25.90
2022-11-20T02:18:56.594Z,25.70
2022-11-20T02:21:34.807Z,30.33
2022-11-20T02:24:03.251Z,28.08
2022-11-20T02:26:32.074Z,26.88
2022-11-20T02:29:00.514Z,32.05
2022-11-20T02:31:27.656Z,30.25
2022-11-20T02:33:59.002Z,31.55
2022-11-20T02:36:28.397Z,30.27
2022-11-20T02:38:55.851Z,29.58
2022-11-20T02:41:23.284Z,26.13
2022-11-20T02:43:50.442Z,28.83
2022-11-20T02:46:17.618Z,27.38
2022-11-20T02:48:44.794Z,27.13
2022-11-20T02:51:11.973Z,28.38
2022-11-20T02:53:39.101Z,28.00
2022-11-20T02:56:06.488Z,24.80
2022-11-20T02:58:33.903Z,30.23
2022-11-20T03:01:01.200Z,29.75
2022-11-20T03:03:28.386Z,28.48
2022-11-20T03:05:55.508Z,27.05
2022-11-20T03:08:22.889Z,25.13
2022-11-20T03:10:50.035Z,30.08
2022-11-20T03:13:20.062Z,28.13
2022-11-20T03:15:47.215Z,33.08
2022-11-20T03:18:14.876Z,26.90
2022-11-20T03:20:42.030Z,25.55
2022-11-20T03:23:09.164Z,26.75
2022-11-20T03:25:36.584Z,26.85
2022-11-20T03:28:03.750Z,28.08
2022-11-20T03:30:31.166Z,24.70
2022-11-20T03:32:58.549Z,33.92
2022-11-20T03:35:25.761Z,30.05
2022-11-20T03:37:52.922Z,29.95
2022-11-20T03:40:20.108Z,27.00
2022-11-20T03:42:47.429Z,30.65
2022-11-20T03:45:15.751Z,28.75
2022-11-20T03:47:42.975Z,28.67
2022-11-20T03:50:10.817Z,26.48
2022-11-20T03:52:38.154Z,31.35
2022-11-20T03:55:05.552Z,26.52
2022-11-20T03:57:32.707Z,30.35
2022-11-20T03:59:59.839Z,28.33
2022-11-20T04:02:26.998Z,28.23
2022-11-20T04:04:54.140Z,29.88
2022-11-20T04:07:21.385Z,26.73
2022-11-20T04:09:49.218Z,29.00
2022-11-20T04:12:16.364Z,26.02
2022-11-20T04:14:43.514Z,26.08
2022-11-20T04:17:10.684Z,28.50
2022-11-20T04:19:37.836Z,32.28
2022-11-20T04:22:05.187Z,31.15
2022-11-20T04:24:32.407Z,28.83
2022-11-20T04:26:59.635Z,29.85
2022-11-20T04:29:26.829Z,31.33
2022-11-20T04:31:54.019Z,28.65
2022-11-20T04:34:21.171Z,25.23
2022-11-20T04:36:48.330Z,28.95
2022-11-20T04:39:19.182Z,28.65
2022-11-20T04:41:46.520Z,30.08
2022-11-20T04:44:13.676Z,31.55
2022-11-20T04:46:44.377Z,32.42
2022-11-20T04:49:12.456Z,30.30
2022-11-20T04:51:39.701Z,29.40
2022-11-20T04:54:06.911Z,28.38
2022-11-20T04:56:34.151Z,31.38
2022-11-20T04:59:04.503Z,31.20
2022-11-20T05:01:32.001Z,29.52
2022-11-20T05:03:59.191Z,26.65
2022-11-20T05:06:26.340Z,29.02
2022-11-20T05:08:53.519Z,26.83
2022-11-20T05:11:21.870Z,25.05
2022-11-20T05:13:49.387Z,29.50
2022-11-20T05:16:21.147Z,27.80
2022-11-20T05:18:48.882Z,31.15
2022-11-20T05:21:16.170Z,30.63
2022-11-20T05:23:44.013Z,30.30
2022-11-20T05:26:15.339Z,28.10
2022-11-20T05:28:42.463Z,30.58
2022-11-20T05:31:11.463Z,27.50
2022-11-20T05:33:40.961Z,33.35
2022-11-20T05:36:08.447Z,31.05
2022-11-20T05:38:35.876Z,26.55
2022-11-20T05:41:10.698Z,29.17
2022-11-20T05:43:39.053Z,31.90
2022-11-20T05:46:07.118Z,27.77
2022-11-20T05:48:34.531Z,31.13
2022-11-20T05:51:02.563Z,27.98
2022-11-20T05:53:29.798Z,29.17
2022-11-20T05:56:00.937Z,26.63
2022-11-20T05:58:28.264Z,31.27
2022-11-20T06:00:55.749Z,27.45
2022-11-20T06:03:23.192Z,26.00
2022-11-20T06:05:50.343Z,27.13
2022-11-20T06:08:17.611Z,30.73
2022-11-20T06:10:45.005Z,30.92
2022-11-20T06:13:12.160Z,26.25
2022-11-20T06:15:39.448Z,23.48
2022-11-20T06:18:06.964Z,32.72
2022-11-20T06:20:39.252Z,30.20
2022-11-20T06:23:09.622Z,28.67
2022-11-20T06:25:40.608Z,27.27
2022-11-20T06:28:08.146Z,31.63
2022-11-20T06:30:35.406Z,31.70
2022-11-20T06:33:02.949Z,26.30
2022-11-20T06:35:30.163Z,27.95
2022-11-20T06:37:57.963Z,30.45
2022-11-20T06:40:25.192Z,28.95
2022-11-20T06:42:52.432Z,26.40
2022-11-20T06:45:19.867Z,26.45
2022-11-20T06:47:47.047Z,28.80
2022-11-20T06:50:15.188Z,27.70
2022-11-20T06:52:43.872Z,26.33
2022-11-20T06:55:11.126Z,22.13
2022-11-20T06:57:38.663Z,28.85
2022-11-20T07:00:06.110Z,26.88
2022-11-20T07:02:33.315Z,31.15
2022-11-20T07:05:00.505Z,28.45
2022-11-20T07:07:27.687Z,27.00
2022-11-20T07:09:54.865Z,32.67
2022-11-20T07:12:22.415Z,28.23
2022-11-20T07:14:49.618Z,29.13
2022-11-20T07:17:16.917Z,28.30
2022-11-20T07:19:44.143Z,27.73
2022-11-20T07:22:11.382Z,27.67
2022-11-20T07:24:43.162Z,30.73
2022-11-20T07:27:12.962Z,30.90
2022-11-20T07:29:40.577Z,25.25
2022-11-20T07:32:07.709Z,25.05
2022-11-20T07:34:34.864Z,26.80
2022-11-20T07:37:06.047Z,31.38
2022-11-20T07:39:36.208Z,25.07
2022-11-20T07:42:03.421Z,24.45
2022-11-20T07:44:30.544Z,26.40
2022-11-20T07:46:57.687Z,23.42
2022-11-20T07:49:24.941Z,24.13
2022-11-20T07:51:54.248Z,21.63
2022-11-20T07:54:21.940Z,21.55
2022-11-20T07:56:49.865Z,23.95
2022-11-20T07:59:17.100Z,21.65
2022-11-20T08:01:44.574Z,24.05
2022-11-20T08:04:12.380Z,21.60
2022-11-20T08:06:39.516Z,20.10
2022-11-20T08:09:06.676Z,21.05
2022-11-20T08:11:52.700Z,24.02
2022-11-20T08:14:19.836Z,23.90
2022-11-20T08:16:48.072Z,23.05
2022-11-20T08:19:16.270Z,25.17
2022-11-20T08:21:43.612Z,22.77
2022-11-20T08:24:11.405Z,24.85
2022-11-20T08:26:39.310Z,23.70
2022-11-20T08:29:06.991Z,22.17
2022-11-20T08:31:34.194Z,23.63
2022-11-20T08:34:04.967Z,21.52
2022-11-20T08:36:38.482Z,20.42
2022-11-20T08:39:05.831Z,23.27
2022-11-20T08:41:34.195Z,20.23
2022-11-20T08:44:02.850Z,20.27
2022-11-20T08:46:34.501Z,22.75
2022-11-20T08:49:01.644Z,22.42
2022-11-20T08:51:28.881Z,22.63
2022-11-20T08:53:56.032Z,20.05
2022-11-20T08:56:23.223Z,23.23
2022-11-20T09:01:40.010Z,19.15
2022-11-20T09:04:07.264Z,22.33
2022-11-20T09:06:34.492Z,23.00
2022-11-20T09:09:06.325Z,21.90
2022-11-20T09:11:34.147Z,21.40
2022-11-20T09:14:03.646Z,19.83
2022-11-20T09:16:30.969Z,21.63
2022-11-20T09:19:28.283Z,20.85
2022-11-20T09:21:45.252Z,22.15
2022-11-20T09:24:12.666Z,21.75
2022-11-20T09:26:39.824Z,20.05
2022-11-20T09:29:06.949Z,20.55
2022-11-20T09:31:36.248Z,19.08
2022-11-20T09:34:04.001Z,19.77
2022-11-20T09:36:31.203Z,19.02
2022-11-20T09:38:58.432Z,19.33
2022-11-20T09:41:31.372Z,22.15
2022-11-20T09:43:58.605Z,19.55
2022-11-20T09:46:40.218Z,15.68
2022-11-20T09:49:31.844Z,19.15
2022-11-20T09:52:00.659Z,19.70
2022-11-20T09:54:31.736Z,17.33
2022-11-20T09:57:02.139Z,18.48
2022-11-20T09:59:32.381Z,19.45
2022-11-20T10:02:00.961Z,17.55
2022-11-20T10:04:31.437Z,20.08
2022-11-20T10:07:30.769Z,20.55
2022-11-20T10:09:56.456Z,22.05
2022-11-20T10:12:54.355Z,18.98
2022-11-20T10:15:27.515Z,20.23
2022-11-20T10:18:01.303Z,19.48
2022-11-20T10:20:31.831Z,22.42
2022-11-20T10:22:58.968Z,21.45
2022-11-20T10:25:30.251Z,18.85
2022-11-20T10:28:04.483Z,21.65
2022-11-20T10:30:32.779Z,22.75
2022-11-20T10:33:07.149Z,18.83
2022-11-20T10:35:38.961Z,19.48
2022-11-20T10:38:09.706Z,20.60
2022-11-20T10:40:41.697Z,18.42
2022-11-20T10:43:16.720Z,19.73
2022-11-20T10:46:07.140Z,17.90
2022-11-20T10:48:34.455Z,17.45
2022-11-20T10:51:01.714Z,22.77
2022-11-20T10:53:28.923Z,18.25
2022-11-20T10:55:59.738Z,17.98
2022-11-20T10:58:39.142Z,16.13
2022-11-20T11:01:15.509Z,17.42
2022-11-20T11:03:46.467Z,20.90
2022-11-20T11:06:21.963Z,22.02
2022-11-20T11:08:50.972Z,20.67
2022-11-20T11:11:25.594Z,18.85
2022-11-20T11:13:52.950Z,19.92
2022-11-20T11:16:24.739Z,20.02
2022-11-20T11:18:52.352Z,18.17
2022-11-20T11:21:26.377Z,19.52
2022-11-20T11:24:34.546Z,18.70
2022-11-20T11:26:58.325Z,18.23
2022-11-20T11:29:27.780Z,17.00
2022-11-20T11:32:05.331Z,18.50
2022-11-20T11:34:33.071Z,17.55
2022-11-20T11:37:01.288Z,16.83
2022-11-20T11:39:29.428Z,19.38
2022-11-20T11:41:56.588Z,18.52
2022-11-20T11:44:44.884Z,14.57
2022-11-20T11:47:18.052Z,13.27
2022-11-20T11:49:45.198Z,15.82
2022-11-20T11:52:17.282Z,15.50
2022-11-20T11:54:53.627Z,16.02
2022-11-20T11:57:20.801Z,15.95
2022-11-20T12:00:10.492Z,14.90
2022-11-20T12:02:37.923Z,16.17
2022-11-20T12:05:10.575Z,16.02
2022-11-20T12:07:47.121Z,13.90
2022-11-20T12:10:17.331Z,14.05
2022-11-20T12:12:49.975Z,14.07
2022-11-20T12:15:24.747Z,15.95
2022-11-20T12:17:51.964Z,16.52
2022-11-20T12:20:19.508Z,13.80
2022-11-20T12:22:57.890Z,13.55
2022-11-20T12:25:36.543Z,13.48
2022-11-20T12:28:18.196Z,14.38
2022-11-20T12:31:07.949Z,11.27
2022-11-20T12:33:44.493Z,16.25
2022-11-20T12:36:27.010Z,14.45
2022-11-20T12:38:57.134Z,11.88
2022-11-20T12:42:02.888Z,11.88
2022-11-20T12:44:56.622Z,12.73
2022-11-20T12:47:26.675Z,18.80
2022-11-20T12:50:04.035Z,10.27
2022-11-20T12:52:38.370Z,9.30
2022-11-20T12:55:23.024Z,10.77
2022-11-20T12:58:05.806Z,9.70
2022-11-20T13:00:35.369Z,8.35
2022-11-20T13:03:11.521Z,8.55
2022-11-20T13:05:58.044Z,9.65
2022-11-20T13:08:26.785Z,10.20
2022-11-20T13:10:57.050Z,10.15
2022-11-20T13:13:27.711Z,11.27
2022-11-20T13:16:04.255Z,14.35
2022-11-20T13:18:32.728Z,13.63
2022-11-20T13:20:59.964Z,25.08
2022-11-20T13:23:28.752Z,11.55
2022-11-20T13:26:06.866Z,12.15
2022-11-20T13:28:34.409Z,13.73
2022-11-20T13:31:01.611Z,14.05
2022-11-20T13:33:40.984Z,13.35
2022-11-20T13:36:21.655Z,11.93
2022-11-20T13:38:51.482Z,13.45
2022-11-20T13:41:33.191Z,13.45
2022-11-20T13:44:05.288Z,14.25
2022-11-20T13:46:46.467Z,28.33
2022-11-20T13:49:34.307Z,23.48
2022-11-20T13:52:06.831Z,23.92
2022-11-20T13:54:40.653Z,17.77
2022-11-20T13:57:13.955Z,11.80
2022-11-20T13:59:41.132Z,12.10
2022-11-20T14:02:13.396Z,14.50
2022-11-20T14:04:43.179Z,17.27
2022-11-20T14:07:10.897Z,17.02
2022-11-20T14:09:38.124Z,15.55
2022-11-20T14:12:05.963Z,15.18
2022-11-20T14:14:37.317Z,14.93
2022-11-20T14:17:18.695Z,13.57
2022-11-20T14:19:47.036Z,12.95
2022-11-20T14:22:20.178Z,11.43
2022-11-20T14:24:48.022Z,13.73
2022-11-20T14:27:16.976Z,14.77
2022-11-20T14:29:45.419Z,15.20
2022-11-20T14:32:12.689Z,18.88
2022-11-20T14:34:44.140Z,15.73
2022-11-20T14:37:17.213Z,17.35
2022-11-20T14:39:50.078Z,20.27
2022-11-20T14:42:24.555Z,18.88
2022-11-20T14:44:52.799Z,22.63
2022-11-20T14:47:21.320Z,19.52
2022-11-20T14:49:48.908Z,18.90
2022-11-20T14:52:18.171Z,20.15
2022-11-20T14:54:49.919Z,19.73
2022-11-20T14:57:26.680Z,19.73
2022-11-20T15:00:05.542Z,20.73
2022-11-20T15:02:32.850Z,22.35
2022-11-20T15:05:00.774Z,24.67
2022-11-20T15:07:29.409Z,24.55
2022-11-20T15:10:07.279Z,23.75
2022-11-20T15:12:35.519Z,20.67
2022-11-20T15:15:03.631Z,26.27
2022-11-20T15:17:32.416Z,21.05
2022-11-20T15:20:00.944Z,21.70
2022-11-20T15:22:28.121Z,17.25
2022-11-20T15:24:55.878Z,24.23
2022-11-20T15:27:23.051Z,19.95
2022-11-20T15:29:50.247Z,22.00
2022-11-20T15:32:17.403Z,25.65
2022-11-20T15:34:44.783Z,25.23
2022-11-20T15:37:11.932Z,20.10
2022-11-20T15:39:39.084Z,22.25
2022-11-20T15:42:06.243Z,18.63
2022-11-20T15:44:33.422Z,25.17
2022-11-20T15:47:00.715Z,23.75
2022-11-20T15:49:27.899Z,20.25
2022-11-20T15:51:55.085Z,20.73
2022-11-20T15:54:23.635Z,20.80
2022-11-20T15:56:54.813Z,20.55
2022-11-20T15:59:22.256Z,22.52
2022-11-20T16:01:49.496Z,25.25
2022-11-20T16:04:17.651Z,23.02
2022-11-20T16:06:45.148Z,25.35
2022-11-20T16:09:12.309Z,26.70
2022-11-20T16:11:39.511Z,26.00
2022-11-20T16:14:25.762Z,26.33
2022-11-20T16:16:53.485Z,32.00
2022-11-20T16:19:20.937Z,25.00
2022-11-20T16:21:48.197Z,26.48
2022-11-20T16:24:15.819Z,23.13
2022-11-20T16:26:43.435Z,25.08
2022-11-20T16:29:11.166Z,26.08
2022-11-20T16:31:38.386Z,32.90
2022-11-20T16:34:11.812Z,35.05
2022-11-20T16:36:43.131Z,32.60
2022-11-20T16:39:10.583Z,36.65
2022-11-20T16:41:37.812Z,37.85
2022-11-20T16:44:08.583Z,39.60
2022-11-20T16:46:36.106Z,44.75
2022-11-20T16:49:05.010Z,37.78
2022-11-20T16:51:33.353Z,49.03
2022-11-20T16:54:02.730Z,63.80
2022-11-20T16:56:29.898Z,45.72
2022-11-20T16:58:58.099Z,35.42
2022-11-20T17:01:26.583Z,26.65
2022-11-20T17:03:56.869Z,24.63
2022-11-20T17:06:25.786Z,22.50
2022-11-20T17:08:54.509Z,31.55
2022-11-20T17:11:21.899Z,28.58
2022-11-20T17:13:49.450Z,33.15
2022-11-20T17:16:20.817Z,31.90
2022-11-20T17:18:49.968Z,26.67
2022-11-20T17:21:17.753Z,26.45
2022-11-20T17:23:45.690Z,26.25
2022-11-20T17:26:21.665Z,25.42
2022-11-20T17:28:59.753Z,26.88
2022-11-20T17:31:27.511Z,25.70
2022-11-20T17:33:54.782Z,26.48
2022-11-20T17:36:22.048Z,25.98
2022-11-20T17:38:49.371Z,28.20
2022-11-20T17:41:17.853Z,25.67
2022-11-20T17:43:45.300Z,31.90
2022-11-20T17:46:16.971Z,26.73
2022-11-20T17:48:44.520Z,24.27
2022-11-20T17:51:12.734Z,26.80
2022-11-20T17:53:41.490Z,25.08
2022-11-20T17:56:27.718Z,23.23
2022-11-20T17:58:54.961Z,23.48
2022-11-20T18:01:22.249Z,27.95
2022-11-20T18:03:49.637Z,25.15
2022-11-20T18:06:18.739Z,24.92
2022-11-20T18:08:45.978Z,26.88
2022-11-20T18:11:13.264Z,25.42
2022-11-20T18:14:00.083Z,28.63
2022-11-20T18:16:27.424Z,25.75
2022-11-20T18:18:55.764Z,30.75
2022-11-20T18:21:23.582Z,27.50
2022-11-20T18:23:51.331Z,28.27
2022-11-20T18:26:19.372Z,28.70
2022-11-20T18:28:46.808Z,31.88
2022-11-20T18:31:14.412Z,27.88
2022-11-20T18:33:41.705Z,30.35
2022-11-20T18:36:14.640Z,24.38
2022-11-20T18:38:44.773Z,28.60
2022-11-20T18:41:32.957Z,32.80
2022-11-20T18:44:19.386Z,25.00
2022-11-20T18:46:46.611Z,27.10
2022-11-20T18:49:14.196Z,26.95
2022-11-20T18:51:44.076Z,31.35
2022-11-20T18:54:12.160Z,30.98
2022-11-20T18:56:39.448Z,24.65
2022-11-20T18:59:08.672Z,30.55
2022-11-20T19:01:36.573Z,27.25
2022-11-20T19:04:10.830Z,28.08
2022-11-20T19:06:38.535Z,27.17
2022-11-20T19:09:08.808Z,30.30
2022-11-20T19:11:36.655Z,30.02
2022-11-20T19:14:03.915Z,32.80
2022-11-20T19:16:31.624Z,33.47
2022-11-20T19:19:03.547Z,33.92
2022-11-20T19:21:31.124Z,28.60
2022-11-20T19:23:59.761Z,24.92
2022-11-20T19:26:27.368Z,33.47
2022-11-20T19:28:54.899Z,31.20
2022-11-20T19:31:25.006Z,28.58
2022-11-20T19:33:56.269Z,27.80
2022-11-20T19:36:25.297Z,30.15
2022-11-20T19:38:54.027Z,33.70
2022-11-20T19:41:22.509Z,26.88
2022-11-20T19:43:49.960Z,33.83
2022-11-20T19:46:18.805Z,32.75
2022-11-20T19:48:45.994Z,26.90
2022-11-20T19:51:15.011Z,29.08
2022-11-20T19:53:42.311Z,31.55
2022-11-20T19:56:09.664Z,36.08
2022-11-20T19:58:36.875Z,34.67
2022-11-20T20:01:14.312Z,34.55
2022-11-20T20:03:41.909Z,31.58
2022-11-20T20:06:11.103Z,33.83
2022-11-20T20:08:38.823Z,32.85
2022-11-20T20:11:12.925Z,37.33
2022-11-20T20:13:40.295Z,35.10
2022-11-20T20:16:11.376Z,32.63
2022-11-20T20:18:38.549Z,34.08
2022-11-20T20:21:09.921Z,30.67
2022-11-20T20:23:37.320Z,31.50
2022-11-20T20:26:05.489Z,30.85
2022-11-20T20:28:33.103Z,29.65
2022-11-20T20:31:10.134Z,31.05
2022-11-20T20:33:41.101Z,29.52
2022-11-20T20:36:09.105Z,31.45
2022-11-20T20:38:36.567Z,31.83
2022-11-20T20:41:04.209Z,32.85
2022-11-20T20:43:31.606Z,32.53
2022-11-20T20:45:58.886Z,32.63
2022-11-20T20:48:26.269Z,30.98
2022-11-20T20:50:54.047Z,29.65
2022-11-20T20:53:21.702Z,28.80
2022-11-20T20:55:58.810Z,30.73
2022-11-20T20:58:26.345Z,32.47
2022-11-20T21:00:53.513Z,32.78
2022-11-20T21:03:20.956Z,30.27
2022-11-20T21:05:48.156Z,33.30
2022-11-20T21:08:28.336Z,29.20
2022-11-20T21:11:02.611Z,34.03
2022-11-20T21:13:30.330Z,31.58
2022-11-20T21:15:57.993Z,26.33
2022-11-20T21:18:25.556Z,32.45
2022-11-20T21:21:11.467Z,30.58
2022-11-20T21:23:38.851Z,36.72
2022-11-20T21:26:07.399Z,33.17
2022-11-20T21:28:35.373Z,31.77
2022-11-20T21:31:07.203Z,30.92
2022-11-20T21:33:44.108Z,28.00
2022-11-20T21:36:12.099Z,30.67
2022-11-20T21:38:39.493Z,30.92
2022-11-20T21:41:07.774Z,30.75
2022-11-20T21:43:34.914Z,29.88
2022-11-20T21:46:03.235Z,31.92
2022-11-20T21:48:31.398Z,32.08
2022-11-20T21:51:07.027Z,30.17
2022-11-20T21:53:34.806Z,31.02
2022-11-20T21:56:04.199Z,28.58
2022-11-20T21:58:31.691Z,37.92
2022-11-20T22:00:58.912Z,39.17
2022-11-20T22:03:26.103Z,36.53
2022-11-20T22:05:57.143Z,37.70
2022-11-20T22:08:25.207Z,34.08
2022-11-20T22:10:56.590Z,34.58
2022-11-20T22:13:42.956Z,32.92
2022-11-20T22:16:10.293Z,30.25
2022-11-20T22:18:37.608Z,35.17
2022-11-20T22:21:07.876Z,32.70
2022-11-20T22:23:35.670Z,31.23
2022-11-20T22:26:03.723Z,32.90
2022-11-20T22:28:30.964Z,33.42
2022-11-20T22:30:59.391Z,38.10
2022-11-20T22:33:30.075Z,33.35
2022-11-20T22:36:04.495Z,30.60
2022-11-20T22:38:36.410Z,32.20
2022-11-20T22:41:10.595Z,33.67
2022-11-20T22:43:38.128Z,36.08
2022-11-20T22:46:09.573Z,33.92
2022-11-20T22:48:37.748Z,37.50
2022-11-20T22:51:06.218Z,36.35
2022-11-20T22:53:33.624Z,36.58
2022-11-20T22:56:01.725Z,34.63
2022-11-20T22:58:29.831Z,36.80
2022-11-20T23:00:57.528Z,34.03
2022-11-20T23:03:24.802Z,33.88
2022-11-20T23:05:52.063Z,36.03
2022-11-20T23:08:19.219Z,39.10
2022-11-20T23:10:46.468Z,34.75
2022-11-20T23:13:13.625Z,33.72
2022-11-20T23:15:40.808Z,37.35
2022-11-20T23:18:07.958Z,37.22
2022-11-20T23:20:37.974Z,35.88
2022-11-20T23:23:05.238Z,35.28
2022-11-20T23:25:32.412Z,39.20
2022-11-20T23:27:59.596Z,33.78
2022-11-20T23:30:26.732Z,33.78
2022-11-20T23:32:53.900Z,33.25
2022-11-20T23:35:21.152Z,37.67
2022-11-20T23:37:48.271Z,33.95
2022-11-20T23:40:15.591Z,36.50
2022-11-20T23:43:02.757Z,34.65
2022-11-20T23:45:29.895Z,34.53
2022-11-20T23:47:57.123Z,33.33
2022-11-20T23:50:24.382Z,39.67
2022-11-20T23:52:51.527Z,35.03
2022-11-20T23:55:18.694Z,35.25
2022-11-20T23:57:45.897Z,36.17
